createdAt,value
2023-05-09T00:01:12.994Z,34.44
2023-05-09T00:03:14.719Z,34.39
2023-05-09T00:05:16.582Z,34.27
2023-05-09T00:07:18.394Z,34.41
2023-05-09T00:09:20.298Z,34.51
2023-05-09T00:11:25.917Z,34.35
2023-05-09T00:13:27.601Z,34.64
2023-05-09T00:15:29.352Z,34.35
2023-05-09T00:17:31.320Z,34.44
2023-05-09T00:19:33.400Z,34.32
2023-05-09T00:21:34.929Z,34.50
2023-05-09T00:23:37.577Z,34.26
2023-05-09T00:25:39.240Z,34.24
2023-05-09T00:27:40.894Z,34.12
2023-05-09T00:29:43.129Z,34.56
2023-05-09T00:31:44.761Z,34.44
2023-05-09T00:33:46.429Z,34.39
2023-05-09T00:35:48.007Z,34.41
2023-05-09T00:37:49.757Z,34.34
2023-05-09T00:39:51.628Z,34.14
2023-05-09T00:41:53.426Z,34.27
2023-05-09T00:43:55.182Z,33.97
2023-05-09T00:45:56.865Z,34.42
2023-05-09T00:47:58.564Z,34.44
2023-05-09T00:50:02.149Z,34.02
2023-05-09T00:52:04.975Z,34.36
2023-05-09T00:54:09.114Z,34.20
2023-05-09T00:56:11.953Z,34.45
2023-05-09T00:58:13.721Z,34.38
2023-05-09T01:00:16.721Z,33.92
2023-05-09T01:02:19.223Z,34.09
2023-05-09T01:04:20.908Z,34.04
2023-05-09T01:06:43.739Z,34.24
2023-05-09T01:08:56.333Z,33.84
2023-05-09T01:11:06.717Z,34.13
2023-05-09T01:13:52.712Z,33.99
2023-05-09T01:15:59.258Z,34.38
2023-05-09T01:18:16.368Z,34.35
2023-05-09T01:20:34.372Z,33.75
2023-05-09T01:22:36.974Z,34.24
2023-05-09T01:24:47.979Z,33.80
2023-05-09T01:27:14.550Z,34.22
2023-05-09T01:29:36.932Z,33.81
2023-05-09T01:31:41.167Z,33.97
2023-05-09T01:33:44.750Z,33.89
2023-05-09T01:35:50.129Z,33.73
2023-05-09T01:37:51.822Z,34.00
2023-05-09T01:39:54.171Z,34.13
2023-05-09T01:41:58.357Z,34.15
2023-05-09T01:44:02.427Z,34.03
2023-05-09T01:46:06.002Z,33.93
2023-05-09T01:48:08.903Z,33.71
2023-05-09T01:50:11.938Z,33.79
2023-05-09T01:52:16.481Z,33.95
2023-05-09T01:54:18.774Z,33.72
2023-05-09T01:56:21.672Z,33.83
2023-05-09T01:58:23.838Z,33.75
2023-05-09T02:00:26.115Z,33.70
2023-05-09T02:02:28.278Z,33.98
2023-05-09T02:04:30.797Z,33.60
2023-05-09T02:06:32.736Z,33.76
2023-05-09T02:08:34.440Z,33.70
2023-05-09T02:10:36.355Z,33.95
2023-05-09T02:12:38.290Z,34.09
2023-05-09T02:14:39.931Z,34.13
2023-05-09T02:16:42.099Z,33.71
2023-05-09T02:18:43.835Z,34.10
2023-05-09T02:20:45.826Z,33.58
2023-05-09T02:22:47.948Z,33.63
2023-05-09T02:24:49.721Z,33.81
2023-05-09T02:26:51.314Z,33.79
2023-05-09T02:28:53.659Z,33.75
2023-05-09T02:30:58.878Z,33.95
2023-05-09T02:33:03.754Z,34.02
2023-05-09T02:35:06.783Z,33.58
2023-05-09T02:37:09.022Z,33.53
2023-05-09T02:39:11.448Z,33.99
2023-05-09T02:41:14.622Z,33.98
2023-05-09T02:43:16.247Z,33.89
2023-05-09T02:45:17.833Z,33.66
2023-05-09T02:47:19.934Z,33.84
2023-05-09T02:49:31.644Z,33.52
2023-05-09T02:51:34.016Z,33.92
2023-05-09T02:53:35.644Z,33.95
2023-05-09T02:55:37.294Z,33.77
2023-05-09T02:57:38.952Z,33.65
2023-05-09T02:59:40.738Z,33.62
2023-05-09T03:01:42.521Z,33.91
2023-05-09T03:03:44.387Z,33.78
2023-05-09T03:05:46.320Z,33.80
2023-05-09T03:07:48.497Z,33.61
2023-05-09T03:09:50.057Z,33.73
2023-05-09T03:11:51.769Z,33.99
2023-05-09T03:13:53.377Z,33.87
2023-05-09T03:15:55.032Z,34.09
2023-05-09T03:17:56.629Z,34.07
2023-05-09T03:19:58.432Z,34.11
2023-05-09T03:21:59.986Z,34.05
2023-05-09T03:24:01.883Z,33.85
2023-05-09T03:26:03.410Z,33.61
2023-05-09T03:28:05.153Z,34.00
2023-05-09T03:30:07.671Z,34.24
2023-05-09T03:32:09.283Z,33.65
2023-05-09T03:34:14.965Z,33.85
2023-05-09T03:36:17.376Z,33.74
2023-05-09T03:38:18.916Z,33.68
2023-05-09T03:40:21.266Z,34.16
2023-05-09T03:42:22.966Z,34.09
2023-05-09T03:44:24.847Z,34.17
2023-05-09T03:46:27.255Z,33.72
2023-05-09T03:48:29.016Z,33.68
2023-05-09T03:50:30.713Z,34.06
2023-05-09T03:52:33.421Z,33.86
2023-05-09T03:54:35.198Z,33.56
2023-05-09T03:56:36.786Z,33.93
2023-05-09T03:58:38.425Z,34.18
2023-05-09T04:00:40.892Z,33.73
2023-05-09T04:02:43.020Z,34.29
2023-05-09T04:04:44.860Z,33.94
2023-05-09T04:06:46.659Z,33.88
2023-05-09T04:08:48.258Z,33.63
2023-05-09T04:10:50.686Z,33.73
2023-05-09T04:12:52.350Z,33.86
2023-05-09T04:14:54.068Z,34.12
2023-05-09T04:16:58.845Z,34.12
2023-05-09T04:19:00.488Z,34.16
2023-05-09T04:21:02.069Z,33.70
2023-05-09T04:23:03.774Z,34.12
2023-05-09T04:25:06.715Z,34.06
2023-05-09T04:27:08.287Z,33.78
2023-05-09T04:29:09.836Z,34.20
2023-05-09T04:31:12.893Z,33.88
2023-05-09T04:33:14.628Z,33.89
2023-05-09T04:35:18.970Z,34.11
2023-05-09T04:37:22.232Z,33.74
2023-05-09T04:39:23.953Z,33.71
2023-05-09T04:41:28.609Z,34.15
2023-05-09T04:43:31.258Z,34.06
2023-05-09T04:45:32.954Z,33.61
2023-05-09T04:47:34.610Z,34.18
2023-05-09T04:49:36.281Z,34.03
2023-05-09T04:51:37.947Z,33.96
2023-05-09T04:53:39.780Z,33.68
2023-05-09T04:55:41.392Z,33.74
2023-05-09T04:57:42.898Z,33.69
2023-05-09T04:59:44.531Z,33.82
2023-05-09T05:01:46.389Z,33.99
2023-05-09T05:03:47.993Z,34.03
2023-05-09T05:05:49.671Z,33.74
2023-05-09T05:07:51.346Z,33.45
2023-05-09T05:09:52.955Z,33.80
2023-05-09T05:12:01.638Z,33.91
2023-05-09T05:14:03.732Z,33.55
2023-05-09T05:16:05.476Z,33.89
2023-05-09T05:18:07.292Z,33.89
2023-05-09T05:20:10.596Z,33.66
2023-05-09T05:22:12.161Z,33.89
2023-05-09T05:24:13.777Z,34.02
2023-05-09T05:26:16.852Z,33.78
2023-05-09T05:28:18.394Z,33.94
2023-05-09T05:30:21.002Z,33.47
2023-05-09T05:32:22.590Z,33.70
2023-05-09T05:34:24.184Z,34.01
2023-05-09T05:36:25.890Z,33.84
2023-05-09T05:38:27.622Z,33.51
2023-05-09T05:40:29.386Z,33.64
2023-05-09T05:42:31.007Z,33.72
2023-05-09T05:44:32.661Z,33.83
2023-05-09T05:46:34.199Z,33.52
2023-05-09T05:48:35.907Z,33.48
2023-05-09T05:50:37.494Z,33.40
2023-05-09T05:52:39.700Z,33.79
2023-05-09T05:54:41.440Z,33.87
2023-05-09T05:56:43.140Z,33.69
2023-05-09T05:58:44.652Z,33.77
2023-05-09T06:00:46.527Z,33.78
2023-05-09T06:02:48.410Z,33.34
2023-05-09T06:04:50.207Z,33.28
2023-05-09T06:06:51.800Z,33.81
2023-05-09T06:08:53.363Z,33.61
2023-05-09T06:10:55.132Z,33.59
2023-05-09T06:12:56.714Z,33.86
2023-05-09T06:15:01.325Z,33.89
2023-05-09T06:17:03.035Z,33.63
2023-05-09T06:19:04.635Z,33.31
2023-05-09T06:21:09.245Z,33.50
2023-05-09T06:23:10.931Z,33.71
2023-05-09T06:25:12.798Z,33.45
2023-05-09T06:27:14.653Z,33.54
2023-05-09T06:29:16.447Z,33.32
2023-05-09T06:31:18.105Z,33.56
2023-05-09T06:33:19.636Z,33.79
2023-05-09T06:35:21.442Z,33.54
2023-05-09T06:37:23.021Z,33.78
2023-05-09T06:39:24.593Z,33.38
2023-05-09T06:41:26.285Z,33.40
2023-05-09T06:43:27.886Z,33.36
2023-05-09T06:45:30.809Z,33.45
2023-05-09T06:47:32.454Z,33.52
2023-05-09T06:49:33.973Z,33.74
2023-05-09T06:51:36.498Z,33.36
2023-05-09T06:53:38.378Z,33.52
2023-05-09T06:55:40.221Z,33.74
2023-05-09T06:57:42.059Z,33.18
2023-05-09T06:59:44.851Z,33.36
2023-05-09T07:01:46.464Z,33.07
2023-05-09T07:03:48.030Z,33.24
2023-05-09T07:05:49.727Z,32.92
2023-05-09T07:07:51.693Z,32.87
2023-05-09T07:10:00.683Z,32.92
2023-05-09T07:12:09.329Z,32.84
2023-05-09T07:14:10.941Z,32.69
2023-05-09T07:16:12.622Z,32.98
2023-05-09T07:18:14.235Z,32.80
2023-05-09T07:20:16.001Z,32.66
2023-05-09T07:22:17.666Z,33.09
2023-05-09T07:24:19.342Z,32.46
2023-05-09T07:26:21.491Z,32.83
2023-05-09T07:28:23.078Z,32.79
2023-05-09T07:30:25.235Z,32.66
2023-05-09T07:32:28.829Z,33.08
2023-05-09T07:34:30.616Z,33.24
2023-05-09T07:36:35.319Z,32.69
2023-05-09T07:38:37.239Z,33.19
2023-05-09T07:40:38.964Z,33.01
2023-05-09T07:42:40.716Z,32.99
2023-05-09T07:44:42.350Z,33.23
2023-05-09T07:46:43.945Z,32.94
2023-05-09T07:48:45.607Z,33.12
2023-05-09T07:50:47.134Z,32.98
2023-05-09T07:52:49.415Z,32.83
2023-05-09T07:54:51.097Z,32.68
2023-05-09T07:56:52.955Z,33.14
2023-05-09T07:58:55.786Z,33.03
2023-05-09T08:00:57.750Z,33.27
2023-05-09T08:02:59.752Z,32.91
2023-05-09T08:05:01.791Z,33.28
2023-05-09T08:07:04.327Z,33.12
2023-05-09T08:09:06.352Z,33.29
2023-05-09T08:11:07.864Z,32.99
2023-05-09T08:13:09.575Z,32.87
2023-05-09T08:15:11.463Z,32.84
2023-05-09T08:17:13.131Z,33.14
2023-05-09T08:19:14.734Z,33.21
2023-05-09T08:21:16.366Z,33.04
2023-05-09T08:23:18.037Z,33.09
2023-05-09T08:25:20.861Z,33.21
2023-05-09T08:27:22.553Z,33.46
2023-05-09T08:29:24.151Z,33.21
2023-05-09T08:31:27.156Z,33.27
2023-05-09T08:33:28.901Z,33.05
2023-05-09T08:35:30.616Z,33.54
2023-05-09T08:37:32.188Z,33.40
2023-05-09T08:39:35.222Z,33.32
2023-05-09T08:41:37.058Z,33.33
2023-05-09T08:43:40.552Z,33.45
2023-05-09T08:45:52.408Z,33.10
2023-05-09T08:47:54.912Z,33.09
2023-05-09T08:49:56.620Z,33.40
2023-05-09T08:51:58.638Z,33.42
2023-05-09T08:54:00.521Z,33.55
2023-05-09T08:56:03.746Z,33.66
2023-05-09T08:58:06.028Z,33.47
2023-05-09T09:00:11.235Z,33.68
2023-05-09T09:02:14.580Z,33.63
2023-05-09T09:04:16.353Z,33.01
2023-05-09T09:06:18.846Z,33.16
2023-05-09T09:08:20.567Z,33.48
2023-05-09T09:10:25.663Z,33.37
2023-05-09T09:12:27.561Z,33.77
2023-05-09T09:14:31.496Z,33.63
2023-05-09T09:16:33.363Z,33.42
2023-05-09T09:18:35.550Z,33.87
2023-05-09T09:20:41.218Z,33.63
2023-05-09T09:22:43.287Z,33.84
2023-05-09T09:24:44.976Z,33.61
2023-05-09T09:26:48.442Z,33.88
2023-05-09T09:28:50.211Z,33.90
2023-05-09T09:30:51.804Z,33.65
2023-05-09T09:32:53.550Z,33.60
2023-05-09T09:35:07.674Z,33.96
2023-05-09T09:37:09.326Z,33.78
2023-05-09T09:39:13.189Z,33.56
2023-05-09T09:41:14.941Z,33.79
2023-05-09T09:43:16.723Z,33.83
2023-05-09T09:45:19.885Z,33.66
2023-05-09T09:47:31.532Z,33.86
2023-05-09T09:49:33.070Z,33.70
2023-05-09T09:51:34.804Z,33.87
2023-05-09T09:53:43.284Z,34.11
2023-05-09T09:55:54.506Z,33.55
2023-05-09T09:57:56.166Z,33.86
2023-05-09T10:00:00.865Z,33.88
2023-05-09T10:02:07.687Z,33.62
2023-05-09T10:04:16.006Z,33.86
2023-05-09T10:06:17.657Z,34.07
2023-05-09T10:08:19.571Z,33.86
2023-05-09T10:10:21.729Z,34.01
2023-05-09T10:12:23.534Z,33.93
2023-05-09T10:14:26.282Z,33.82
2023-05-09T10:16:40.190Z,33.91
2023-05-09T10:18:45.188Z,34.06
2023-05-09T10:20:47.341Z,33.82
2023-05-09T10:22:49.524Z,33.95
2023-05-09T10:25:06.569Z,33.87
2023-05-09T10:27:12.042Z,33.89
2023-05-09T10:29:14.927Z,34.15
2023-05-09T10:31:21.291Z,34.24
2023-05-09T10:33:27.949Z,34.00
2023-05-09T10:35:33.193Z,33.81
2023-05-09T10:37:35.538Z,33.97
2023-05-09T10:39:37.416Z,33.99
2023-05-09T10:41:39.748Z,33.91
2023-05-09T10:43:41.409Z,34.08
2023-05-09T10:45:43.220Z,34.20
2023-05-09T10:47:45.562Z,34.01
2023-05-09T10:49:47.435Z,34.03
2023-05-09T10:51:52.280Z,34.44
2023-05-09T10:53:55.845Z,34.56
2023-05-09T10:56:01.608Z,34.25
2023-05-09T10:58:37.477Z,33.89
2023-05-09T11:00:41.699Z,34.04
2023-05-09T11:03:06.342Z,34.78
2023-05-09T11:05:19.225Z,34.71
2023-05-09T11:07:25.746Z,35.27
2023-05-09T11:09:38.718Z,35.15
2023-05-09T11:11:51.399Z,35.47
2023-05-09T11:13:57.923Z,35.59
2023-05-09T11:15:59.529Z,35.54
2023-05-09T11:18:09.000Z,35.38
2023-05-09T11:20:10.777Z,34.97
2023-05-09T11:22:17.247Z,35.13
2023-05-09T11:24:19.039Z,35.30
2023-05-09T11:26:22.271Z,35.19
2023-05-09T11:28:29.019Z,35.42
2023-05-09T11:30:43.946Z,35.62
2023-05-09T11:32:47.848Z,35.10
2023-05-09T11:34:49.884Z,35.22
2023-05-09T11:36:51.452Z,35.40
2023-05-09T11:39:08.094Z,35.25
2023-05-09T11:41:09.700Z,35.29
2023-05-09T11:43:12.723Z,35.26
2023-05-09T11:45:15.408Z,35.38
2023-05-09T11:47:17.653Z,35.65
2023-05-09T11:49:20.373Z,35.30
2023-05-09T11:51:21.981Z,35.26
2023-05-09T11:53:24.344Z,35.59
2023-05-09T11:55:29.745Z,35.64
2023-05-09T11:57:31.521Z,35.72
2023-05-09T11:59:34.229Z,35.96
2023-05-09T12:01:36.325Z,35.92
2023-05-09T12:03:45.679Z,35.90
2023-05-09T12:05:50.962Z,35.43
2023-05-09T12:07:52.867Z,35.53
2023-05-09T12:09:54.524Z,35.51
2023-05-09T12:11:56.107Z,35.56
2023-05-09T12:13:57.932Z,35.91
2023-05-09T12:16:02.573Z,35.12
2023-05-09T12:18:05.963Z,35.20
2023-05-09T12:20:08.990Z,35.62
2023-05-09T12:22:10.651Z,35.61
2023-05-09T12:24:12.302Z,35.78
2023-05-09T12:26:15.544Z,36.13
2023-05-09T12:28:17.830Z,36.34
2023-05-09T12:30:19.417Z,36.67
2023-05-09T12:32:21.403Z,36.45
2023-05-09T12:34:23.116Z,36.81
2023-05-09T12:36:24.654Z,37.20
2023-05-09T12:38:26.365Z,37.58
2023-05-09T12:40:27.938Z,37.50
2023-05-09T12:42:30.500Z,37.47
2023-05-09T12:44:32.048Z,36.94
2023-05-09T12:46:34.604Z,36.83
2023-05-09T12:48:38.333Z,36.81
2023-05-09T12:50:39.930Z,37.04
2023-05-09T12:52:54.637Z,37.00
2023-05-09T12:55:12.312Z,36.97
2023-05-09T12:57:24.908Z,36.66
2023-05-09T12:59:28.139Z,36.82
2023-05-09T13:01:29.856Z,36.22
2023-05-09T13:03:37.774Z,37.13
2023-05-09T13:05:39.414Z,36.39
2023-05-09T13:07:45.558Z,36.90
2023-05-09T13:10:00.934Z,36.54
2023-05-09T13:12:04.058Z,36.78
2023-05-09T13:14:05.798Z,36.57
2023-05-09T13:16:09.980Z,37.08
2023-05-09T13:18:12.668Z,36.96
2023-05-09T13:20:14.458Z,36.90
2023-05-09T13:22:17.491Z,36.89
2023-05-09T13:24:19.283Z,36.91
2023-05-09T13:26:21.652Z,36.76
2023-05-09T13:28:23.228Z,37.17
2023-05-09T13:30:25.402Z,37.84
2023-05-09T13:32:27.334Z,37.91
2023-05-09T13:34:28.948Z,38.07
2023-05-09T13:36:31.668Z,37.98
2023-05-09T13:38:36.848Z,37.81
2023-05-09T13:40:38.517Z,37.85
2023-05-09T13:42:40.923Z,37.81
2023-05-09T13:44:42.532Z,37.48
2023-05-09T13:46:45.864Z,37.77
2023-05-09T13:48:47.860Z,38.37
2023-05-09T13:50:50.461Z,38.23
2023-05-09T13:52:52.805Z,38.68
2023-05-09T13:54:54.550Z,39.60
2023-05-09T13:56:56.191Z,40.02
2023-05-09T13:58:58.035Z,40.22
2023-05-09T14:00:59.588Z,40.18
2023-05-09T14:03:02.544Z,40.74
2023-05-09T14:05:04.440Z,40.31
2023-05-09T14:07:06.062Z,40.31
2023-05-09T14:09:09.014Z,40.61
2023-05-09T14:11:10.603Z,40.81
2023-05-09T14:13:12.696Z,41.08
2023-05-09T14:15:14.415Z,40.61
2023-05-09T14:17:16.015Z,40.55
2023-05-09T14:19:17.689Z,40.35
2023-05-09T14:21:19.681Z,40.81
2023-05-09T14:23:22.285Z,40.53
2023-05-09T14:25:23.914Z,41.19
2023-05-09T14:27:26.185Z,41.26
2023-05-09T14:29:27.990Z,40.99
2023-05-09T14:31:29.740Z,41.38
2023-05-09T14:33:32.834Z,41.16
2023-05-09T14:35:34.823Z,40.96
2023-05-09T14:37:37.425Z,40.87
2023-05-09T14:39:42.869Z,40.94
2023-05-09T14:41:46.980Z,41.07
2023-05-09T14:43:49.057Z,40.79
2023-05-09T14:45:50.851Z,40.93
2023-05-09T14:47:53.387Z,40.78
2023-05-09T14:49:55.606Z,40.99
2023-05-09T14:51:57.332Z,40.87
2023-05-09T14:53:59.405Z,40.93
2023-05-09T14:56:01.620Z,41.11
2023-05-09T14:58:03.318Z,41.49
2023-05-09T15:00:16.673Z,41.44
2023-05-09T15:02:22.661Z,40.96
2023-05-09T15:04:28.370Z,41.20
2023-05-09T15:06:30.421Z,41.52
2023-05-09T15:08:32.033Z,41.86
2023-05-09T15:10:33.820Z,41.86
2023-05-09T15:12:35.487Z,41.59
2023-05-09T15:14:37.425Z,41.51
2023-05-09T15:16:39.106Z,41.53
2023-05-09T15:18:45.307Z,41.26
2023-05-09T15:20:47.004Z,41.71
2023-05-09T15:22:49.679Z,41.45
2023-05-09T15:24:51.409Z,41.95
2023-05-09T15:26:54.487Z,41.48
2023-05-09T15:28:56.146Z,41.74
2023-05-09T15:30:59.900Z,41.84
2023-05-09T15:33:01.960Z,41.55
2023-05-09T15:35:05.170Z,41.64
2023-05-09T15:37:06.739Z,41.76
2023-05-09T15:39:08.482Z,41.62
2023-05-09T15:41:10.627Z,41.69
2023-05-09T15:43:12.960Z,41.54
2023-05-09T15:45:15.572Z,41.87
2023-05-09T15:47:17.301Z,41.52
2023-05-09T15:49:19.007Z,42.32
2023-05-09T15:51:20.690Z,41.79
2023-05-09T15:53:23.285Z,41.88
2023-05-09T15:55:26.781Z,42.12
2023-05-09T15:57:29.606Z,41.84
2023-05-09T15:59:31.333Z,41.49
2023-05-09T16:01:35.251Z,41.40
2023-05-09T16:03:37.478Z,41.34
2023-05-09T16:05:41.018Z,41.27
2023-05-09T16:07:46.534Z,41.30
2023-05-09T16:09:48.097Z,41.23
2023-05-09T16:11:50.785Z,41.16
2023-05-09T16:13:52.328Z,41.00
2023-05-09T16:15:54.047Z,41.29
2023-05-09T16:17:55.654Z,41.12
2023-05-09T16:19:58.450Z,40.94
2023-05-09T16:22:00.181Z,40.94
2023-05-09T16:24:03.186Z,40.91
2023-05-09T16:26:05.514Z,40.84
2023-05-09T16:28:08.259Z,40.54
2023-05-09T16:30:10.302Z,40.49
2023-05-09T16:32:12.036Z,40.55
2023-05-09T16:34:13.630Z,40.38
2023-05-09T16:36:15.191Z,40.56
2023-05-09T16:38:17.254Z,40.82
2023-05-09T16:40:19.479Z,40.77
2023-05-09T16:42:21.059Z,40.93
2023-05-09T16:44:22.717Z,41.16
2023-05-09T16:46:24.552Z,40.89
2023-05-09T16:48:26.274Z,40.79
2023-05-09T16:50:28.783Z,40.91
2023-05-09T16:52:30.742Z,41.02
2023-05-09T16:54:32.576Z,41.18
2023-05-09T16:56:34.663Z,40.60
2023-05-09T16:58:37.422Z,40.73
2023-05-09T17:00:39.101Z,40.19
2023-05-09T17:02:40.860Z,41.18
2023-05-09T17:04:42.524Z,41.17
2023-05-09T17:06:44.132Z,42.57
2023-05-09T17:08:45.845Z,42.45
2023-05-09T17:10:47.496Z,42.53
2023-05-09T17:12:49.198Z,42.26
2023-05-09T17:14:51.164Z,42.61
2023-05-09T17:16:52.987Z,41.94
2023-05-09T17:18:54.729Z,41.54
2023-05-09T17:20:56.608Z,41.30
2023-05-09T17:22:58.189Z,41.43
2023-05-09T17:24:59.763Z,41.86
2023-05-09T17:27:01.728Z,41.95
2023-05-09T17:29:03.756Z,41.83
2023-05-09T17:31:05.382Z,41.89
2023-05-09T17:33:07.001Z,41.37
2023-05-09T17:35:09.461Z,41.58
2023-05-09T17:37:11.046Z,41.88
2023-05-09T17:39:13.403Z,42.60
2023-05-09T17:41:15.162Z,42.41
2023-05-09T17:43:17.138Z,42.46
2023-05-09T17:45:19.026Z,42.42
2023-05-09T17:47:21.860Z,42.81
2023-05-09T17:49:24.009Z,44.01
2023-05-09T17:51:27.084Z,42.81
2023-05-09T17:53:28.778Z,42.65
2023-05-09T17:55:30.377Z,42.44
2023-05-09T17:57:32.022Z,41.85
2023-05-09T17:59:33.751Z,41.27
2023-05-09T18:01:35.577Z,41.29
2023-05-09T18:03:37.462Z,41.08
2023-05-09T18:05:40.054Z,41.03
2023-05-09T18:07:41.567Z,40.51
2023-05-09T18:09:43.164Z,40.99
2023-05-09T18:11:44.850Z,40.90
2023-05-09T18:13:47.202Z,40.77
2023-05-09T18:15:48.956Z,40.67
2023-05-09T18:17:50.665Z,40.90
2023-05-09T18:19:52.197Z,40.40
2023-05-09T18:21:53.788Z,40.53
2023-05-09T18:23:55.563Z,40.64
2023-05-09T18:25:57.170Z,40.58
2023-05-09T18:27:58.957Z,40.78
2023-05-09T18:30:00.525Z,40.68
2023-05-09T18:32:02.289Z,40.90
2023-05-09T18:34:04.244Z,40.75
2023-05-09T18:36:08.935Z,40.46
2023-05-09T18:38:10.540Z,40.63
2023-05-09T18:40:15.495Z,40.73
2023-05-09T18:42:18.150Z,41.22
2023-05-09T18:44:19.793Z,41.74
2023-05-09T18:46:21.511Z,41.61
2023-05-09T18:48:23.196Z,41.92
2023-05-09T18:50:24.794Z,41.32
2023-05-09T18:52:26.525Z,41.44
2023-05-09T18:54:28.265Z,41.74
2023-05-09T18:56:29.906Z,41.24
2023-05-09T18:58:32.410Z,41.76
2023-05-09T19:00:35.680Z,41.41
2023-05-09T19:02:38.173Z,41.29
2023-05-09T19:04:40.136Z,41.32
2023-05-09T19:06:42.426Z,41.20
2023-05-09T19:08:43.971Z,40.82
2023-05-09T19:10:45.519Z,40.99
2023-05-09T19:12:47.213Z,41.41
2023-05-09T19:14:49.267Z,41.47
2023-05-09T19:16:51.358Z,41.38
2023-05-09T19:18:58.179Z,41.59
2023-05-09T19:21:00.183Z,41.54
2023-05-09T19:23:02.125Z,41.50
2023-05-09T19:25:03.807Z,41.98
2023-05-09T19:27:06.411Z,41.73
2023-05-09T19:29:08.478Z,42.34
2023-05-09T19:31:10.198Z,42.14
2023-05-09T19:33:12.150Z,42.48
2023-05-09T19:35:13.778Z,42.49
2023-05-09T19:37:15.421Z,42.30
2023-05-09T19:39:17.113Z,42.25
2023-05-09T19:41:19.164Z,42.34
2023-05-09T19:43:20.940Z,42.06
2023-05-09T19:45:23.505Z,42.33
2023-05-09T19:47:25.321Z,42.16
2023-05-09T19:49:26.893Z,42.53
2023-05-09T19:51:28.658Z,42.20
2023-05-09T19:53:30.209Z,42.45
2023-05-09T19:55:31.804Z,42.61
2023-05-09T19:57:33.493Z,42.71
2023-05-09T19:59:35.064Z,42.95
2023-05-09T20:01:36.761Z,43.80
2023-05-09T20:03:40.770Z,43.44
2023-05-09T20:05:43.732Z,43.85
2023-05-09T20:07:45.329Z,43.45
2023-05-09T20:09:46.938Z,43.84
2023-05-09T20:11:48.747Z,43.53
2023-05-09T20:13:50.801Z,42.95
2023-05-09T20:15:52.456Z,43.51
2023-05-09T20:17:54.253Z,43.00
2023-05-09T20:19:56.184Z,43.36
2023-05-09T20:21:57.774Z,43.18
2023-05-09T20:23:59.376Z,42.38
2023-05-09T20:26:01.563Z,42.33
2023-05-09T20:28:03.336Z,42.51
2023-05-09T20:30:05.676Z,42.69
2023-05-09T20:32:07.321Z,42.34
2023-05-09T20:34:13.335Z,42.53
2023-05-09T20:36:15.382Z,42.24
2023-05-09T20:38:17.185Z,41.96
2023-05-09T20:40:18.984Z,42.12
2023-05-09T20:42:20.612Z,42.11
2023-05-09T20:44:22.243Z,42.34
2023-05-09T20:46:23.979Z,41.64
2023-05-09T20:48:25.873Z,41.64
2023-05-09T20:50:27.541Z,41.93
2023-05-09T20:52:29.381Z,41.29
2023-05-09T20:54:31.122Z,41.43
2023-05-09T20:56:35.344Z,41.96
2023-05-09T20:58:37.024Z,41.62
2023-05-09T21:00:38.597Z,41.30
2023-05-09T21:02:40.423Z,41.71
2023-05-09T21:04:42.155Z,41.69
2023-05-09T21:06:43.743Z,40.92
2023-05-09T21:08:45.429Z,40.69
2023-05-09T21:10:47.036Z,40.50
2023-05-09T21:12:48.651Z,39.97
2023-05-09T21:14:50.975Z,39.74
2023-05-09T21:16:54.987Z,39.83
2023-05-09T21:18:57.955Z,40.00
2023-05-09T21:21:02.791Z,39.87
2023-05-09T21:23:04.418Z,39.83
2023-05-09T21:25:06.621Z,39.27
2023-05-09T21:27:08.227Z,39.21
2023-05-09T21:29:09.824Z,38.39
2023-05-09T21:31:11.644Z,38.71
2023-05-09T21:33:13.345Z,38.07
2023-05-09T21:35:15.384Z,38.50
2023-05-09T21:37:17.103Z,38.06
2023-05-09T21:39:18.815Z,37.97
2023-05-09T21:41:21.849Z,37.76
2023-05-09T21:43:23.488Z,37.53
2023-05-09T21:45:25.006Z,37.42
2023-05-09T21:47:27.226Z,36.94
2023-05-09T21:49:29.345Z,37.22
2023-05-09T21:51:31.550Z,37.39
2023-05-09T21:53:33.227Z,36.93
2023-05-09T21:55:34.891Z,36.90
2023-05-09T21:57:39.357Z,37.17
2023-05-09T21:59:41.032Z,37.21
2023-05-09T22:01:44.366Z,37.38
2023-05-09T22:03:47.411Z,36.97
2023-05-09T22:05:49.065Z,37.21
2023-05-09T22:07:51.437Z,36.97
2023-05-09T22:09:53.242Z,37.14
2023-05-09T22:11:54.959Z,37.01
2023-05-09T22:13:56.701Z,36.83
2023-05-09T22:15:58.464Z,36.36
2023-05-09T22:18:00.441Z,36.22
2023-05-09T22:20:02.120Z,36.58
2023-05-09T22:22:03.788Z,37.37
2023-05-09T22:24:06.915Z,37.09
2023-05-09T22:26:08.505Z,36.82
2023-05-09T22:28:10.063Z,37.12
2023-05-09T22:30:12.454Z,37.43
2023-05-09T22:32:14.216Z,36.94
2023-05-09T22:34:15.812Z,37.11
2023-05-09T22:36:17.434Z,37.65
2023-05-09T22:38:18.971Z,37.65
2023-05-09T22:40:20.600Z,37.47
2023-05-09T22:42:22.204Z,37.69
2023-05-09T22:44:23.963Z,37.67
2023-05-09T22:46:25.681Z,37.37
2023-05-09T22:48:27.381Z,38.18
2023-05-09T22:50:29.029Z,37.88
2023-05-09T22:52:30.599Z,38.06
2023-05-09T22:54:32.262Z,37.46
2023-05-09T22:56:33.875Z,37.83
2023-05-09T22:58:35.546Z,37.87
2023-05-09T23:00:37.214Z,37.51
2023-05-09T23:02:39.090Z,37.93
2023-05-09T23:04:41.217Z,37.80
2023-05-09T23:06:42.820Z,37.76
2023-05-09T23:08:44.375Z,37.54
2023-05-09T23:10:45.954Z,37.83
2023-05-09T23:12:47.761Z,37.60
2023-05-09T23:14:49.370Z,37.89
2023-05-09T23:16:51.007Z,37.55
2023-05-09T23:18:52.655Z,37.75
2023-05-09T23:20:54.278Z,37.61
2023-05-09T23:22:56.050Z,37.55
2023-05-09T23:24:57.611Z,37.02
2023-05-09T23:26:59.137Z,37.12
2023-05-09T23:29:00.986Z,37.57
2023-05-09T23:31:02.593Z,37.34
2023-05-09T23:33:04.346Z,36.76
2023-05-09T23:35:06.436Z,36.68
2023-05-09T23:37:08.440Z,36.99
2023-05-09T23:39:10.072Z,36.38
2023-05-09T23:41:12.625Z,36.42
2023-05-09T23:43:14.257Z,36.68
2023-05-09T23:45:16.583Z,36.96
2023-05-09T23:47:18.170Z,36.55
2023-05-09T23:49:19.810Z,36.42
2023-05-09T23:51:22.558Z,36.37
2023-05-09T23:53:24.138Z,36.68
2023-05-09T23:55:25.826Z,36.70
2023-05-09T23:57:27.496Z,36.81
2023-05-09T23:59:29.336Z,36.25
